Time;durP1;ratioP1;P1;durP2;ratioP2;P2;SDS_P1;SDS_P2;PMS_P1;PMS_P2;Temp;Humidity;BMP_temperature;BMP_pressure;BME280_temperature;BME280_humidity;BME280_pressure;Samples;Min_cycle;Max_cycle;Signal;HPM_P1;HPM_P2
2022/09/29 00:00:11;;;;;;;2.13;1.17;;;;;;;5.23;100.00;100323.31;5030373;28;20041;-78
2022/09/29 00:02:37;;;;;;;3.72;1.27;;;;;;;5.16;100.00;100327.56;4997403;28;20044;-77
2022/09/29 00:05:03;;;;;;;3.00;1.42;;;;;;;5.01;100.00;100319.28;5030148;28;20029;-77
2022/09/29 00:07:31;;;;;;;4.47;1.30;;;;;;;5.03;100.00;100314.63;4997387;28;20037;-79
2022/09/29 00:09:57;;;;;;;3.75;1.17;;;;;;;4.99;100.00;100316.75;5013961;28;20036;-79
2022/09/29 00:12:22;;;;;;;4.10;1.45;;;;;;;4.93;100.00;100319.19;5029955;28;20048;-78
2022/09/29 00:14:48;;;;;;;1.77;1.25;;;;;;;4.91;100.00;100315.84;5028479;28;20467;-78
2022/09/29 00:17:14;;;;;;;1.88;1.05;;;;;;;5.11;100.00;100312.06;5031021;28;20487;-78
2022/09/29 00:19:39;;;;;;;4.07;1.13;;;;;;;5.22;100.00;100311.81;4997314;28;20129;-78
2022/09/29 00:22:05;;;;;;;4.40;1.10;;;;;;;5.40;100.00;100317.16;5030880;28;20084;-79
2022/09/29 00:24:31;;;;;;;3.42;0.90;;;;;;;5.64;100.00;100313.03;5029740;28;20103;-78
2022/09/29 00:26:56;;;;;;;1.77;1.20;;;;;;;6.00;100.00;100316.47;4997022;28;20423;-77
2022/09/29 00:29:22;;;;;;;3.92;1.20;;;;;;;6.32;100.00;100321.16;5013220;28;20040;-78
2022/09/29 00:31:48;;;;;;;4.35;1.35;;;;;;;6.48;100.00;100317.72;5027291;28;20411;-78
2022/09/29 00:34:14;;;;;;;6.28;1.42;;;;;;;6.61;100.00;100319.94;5029592;28;20116;-78
2022/09/29 00:36:40;;;;;;;1.77;0.98;;;;;;;6.65;100.00;100317.81;5013131;28;20510;-78
2022/09/29 00:39:06;;;;;;;6.32;1.70;;;;;;;6.70;100.00;100327.03;5030796;28;20033;-78
2022/09/29 00:41:34;;;;;;;4.75;1.77;;;;;;;6.66;100.00;100322.16;5013660;28;20376;-77
2022/09/29 00:44:01;;;;;;;9.32;1.80;;;;;;;6.60;100.00;100319.13;5013217;28;20088;-78
2022/09/29 00:46:29;;;;;;;1.40;1.05;;;;;;;6.50;100.00;100313.06;5017460;28;20479;-78
2022/09/29 00:48:57;;;;;;;9.10;2.13;;;;;;;6.55;100.00;100307.25;5028615;28;20030;-77
2022/09/29 00:51:24;;;;;;;4.75;1.60;;;;;;;6.55;100.00;100320.59;5029537;28;20032;-78
2022/09/29 00:53:50;;;;;;;3.63;1.50;;;;;;;6.16;100.00;100276.50;5013767;28;20447;-78
2022/09/29 00:56:16;;;;;;;3.33;1.52;;;;;;;6.21;100.00;100312.59;5029337;28;20065;-78
2022/09/29 00:58:58;;;;;;;5.35;1.83;;;;;;;6.02;100.00;100314.47;5018070;28;20044;-78
2022/09/29 01:01:26;;;;;;;5.68;1.48;;;;;;;5.78;100.00;100314.28;5013161;28;20026;-78
2022/09/29 01:03:55;;;;;;;6.13;2.28;;;;;;;5.69;100.00;100313.41;5011726;28;20535;-78
2022/09/29 01:06:29;;;;;;;3.10;1.40;;;;;;;5.63;100.00;100303.34;5028772;28;20045;-79
2022/09/29 01:09:04;;;;;;;6.47;1.80;;;;;;;5.63;100.00;100314.00;5003897;28;20033;-78
2022/09/29 01:11:30;;;;;;;4.13;1.50;;;;;;;5.61;100.00;100303.50;5021830;28;20038;-78
2022/09/29 01:14:02;;;;;;;3.92;1.60;;;;;;;5.67;100.00;100315.38;5029083;28;20061;-79
2022/09/29 01:16:28;;;;;;;3.83;1.50;;;;;;;5.75;100.00;100327.94;5021422;28;20036;-78
2022/09/29 01:18:54;;;;;;;6.75;1.60;;;;;;;5.62;100.00;100307.00;5030649;28;20475;-77
2022/09/29 01:21:29;;;;;;;4.93;1.50;;;;;;;5.62;100.00;100315.84;5026141;28;20037;-79
2022/09/29 01:24:18;;;;;;;5.63;1.88;;;;;;;5.62;100.00;100313.16;5027861;28;20076;-77
2022/09/29 01:26:47;;;;;;;2.78;1.63;;;;;;;5.65;100.00;100315.53;5039842;28;20056;-77
2022/09/29 01:29:34;;;;;;;4.57;1.40;;;;;;;5.72;100.00;100319.25;5012732;28;20033;-78
2022/09/29 01:32:27;;;;;;;3.40;1.50;;;;;;;5.63;100.00;100314.84;5030258;28;20018;-79
2022/09/29 01:35:30;;;;;;;6.78;1.52;;;;;;;5.61;100.00;100322.19;5019451;28;20025;-77
2022/09/29 01:38:38;;;;;;;8.07;1.77;;;;;;;5.55;100.00;100317.44;4991062;28;20052;-77
2022/09/29 01:41:26;;;;;;;2.63;1.30;;;;;;;5.36;100.00;100314.94;4981220;28;20129;-78
2022/09/29 01:44:16;;;;;;;8.20;1.88;;;;;;;5.41;100.00;100331.31;5025748;28;20151;-77
2022/09/29 01:46:55;;;;;;;3.95;1.73;;;;;;;5.43;100.00;100316.03;5046560;28;20419;-77
2022/09/29 01:49:22;;;;;;;4.07;1.83;;;;;;;5.51;100.00;100324.09;5048010;28;20072;-79
2022/09/29 01:52:02;;;;;;;2.80;1.60;;;;;;;5.50;100.00;100315.25;5016486;28;20045;-77
2022/09/29 01:54:51;;;;;;;3.38;1.48;;;;;;;5.62;100.00;100318.50;5028155;28;20038;-76
2022/09/29 01:57:22;;;;;;;4.90;1.73;;;;;;;5.63;100.00;100324.66;5047434;28;20144;-77
2022/09/29 02:00:05;;;;;;;2.20;1.20;;;;;;;5.49;100.00;100310.06;5026738;28;20047;-76
2022/09/29 02:02:58;;;;;;;4.25;1.42;;;;;;;5.54;100.00;100326.44;5012185;28;20468;-79
2022/09/29 02:05:37;;;;;;;7.13;1.65;;;;;;;5.61;100.00;100327.50;5029005;28;20128;-80
2022/09/29 02:08:16;;;;;;;5.75;1.42;;;;;;;5.61;100.00;100311.50;5029520;28;20136;-79
2022/09/29 02:10:49;;;;;;;5.05;1.67;;;;;;;5.54;100.00;100313.09;5000999;28;20038;-78
2022/09/29 02:13:15;;;;;;;5.05;1.30;;;;;;;5.40;100.00;100303.84;5029411;28;20048;-79
2022/09/29 02:15:45;;;;;;;3.60;1.52;;;;;;;5.37;100.00;100316.59;5015211;28;20073;-78
2022/09/29 02:18:32;;;;;;;5.47;1.92;;;;;;;5.20;100.00;100316.47;5016025;28;20060;-78
2022/09/29 02:20:58;;;;;;;3.72;1.50;;;;;;;5.05;100.00;100318.84;5044840;28;20033;-78
2022/09/29 02:23:23;;;;;;;2.70;1.30;;;;;;;4.99;100.00;100313.25;5032274;28;20018;-79
2022/09/29 02:25:50;;;;;;;6.97;1.67;;;;;;;5.03;100.00;100307.47;5031519;28;20068;-79
2022/09/29 02:28:16;;;;;;;4.35;1.40;;;;;;;5.17;100.00;100314.09;5015737;28;20034;-78
2022/09/29 02:30:42;;;;;;;4.10;1.00;;;;;;;5.20;100.00;100315.63;5014592;28;20099;-78
2022/09/29 02:33:21;;;;;;;4.72;1.10;;;;;;;5.35;100.00;100316.78;5015638;28;20104;-79
2022/09/29 02:36:26;;;;;;;5.85;1.45;;;;;;;5.44;100.00;100309.69;5001289;28;20029;-81
2022/09/29 02:39:02;;;;;;;3.60;1.33;;;;;;;5.53;100.00;100308.78;5032772;28;20172;-78
2022/09/29 02:41:31;;;;;;;2.08;1.55;;;;;;;5.60;100.00;100292.97;5009176;28;20037;-79
2022/09/29 02:44:14;;;;;;;4.03;1.38;;;;;;;5.90;100.00;100307.69;4999278;28;20037;-78
2022/09/29 02:47:12;;;;;;;5.88;1.77;;;;;;;6.15;100.00;100304.22;5011816;28;20563;-78
2022/09/29 02:50:06;;;;;;;1.17;0.70;;;;;;;6.33;100.00;100306.81;5043488;28;20495;-78
2022/09/29 02:52:54;;;;;;;6.88;1.58;;;;;;;6.32;100.00;100315.81;5015162;28;20036;-79
2022/09/29 02:55:26;;;;;;;2.40;1.48;;;;;;;6.32;100.00;100314.97;5047327;28;20037;-78
2022/09/29 02:57:58;;;;;;;5.53;1.60;;;;;;;6.24;100.00;100307.75;5015004;28;20029;-78
2022/09/29 03:00:25;;;;;;;1.65;0.90;;;;;;;6.26;100.00;100313.78;5023416;28;20609;-77
2022/09/29 03:02:51;;;;;;;4.40;1.63;;;;;;;6.27;100.00;100317.28;5029663;28;20049;-78
2022/09/29 03:05:19;;;;;;;3.20;1.13;;;;;;;6.22;100.00;100311.59;5014087;28;20041;-78
2022/09/29 03:07:45;;;;;;;1.00;0.68;;;;;;;6.32;100.00;100315.81;5014963;28;20120;-77
2022/09/29 03:10:13;;;;;;;3.72;1.20;;;;;;;6.30;100.00;100317.00;5014917;28;20128;-77
2022/09/29 03:12:38;;;;;;;2.97;1.25;;;;;;;6.27;100.00;100310.13;5017886;28;20033;-79
2022/09/29 03:15:05;;;;;;;7.80;1.58;;;;;;;6.24;100.00;100291.75;5017644;28;20032;-78
2022/09/29 03:17:31;;;;;;;4.50;1.58;;;;;;;6.54;100.00;100309.09;5031414;28;20036;-77
2022/09/29 03:19:57;;;;;;;4.20;1.42;;;;;;;6.75;100.00;100338.06;5029669;28;20022;-77
2022/09/29 03:22:23;;;;;;;3.38;1.55;;;;;;;6.83;100.00;100334.59;5030511;28;20033;-78
2022/09/29 03:24:49;;;;;;;7.88;1.55;;;;;;;6.99;100.00;100345.31;5014354;28;20104;-77
2022/09/29 03:27:15;;;;;;;4.05;1.45;;;;;;;7.10;100.00;100340.66;5030653;28;20121;-78
2022/09/29 03:29:41;;;;;;;3.40;1.30;;;;;;;7.21;100.00;100335.84;5030770;28;20033;-77
2022/09/29 03:32:06;;;;;;;9.65;1.70;;;;;;;7.36;100.00;100337.88;4998336;28;20041;-78
2022/09/29 03:34:33;;;;;;;7.03;1.40;;;;;;;7.56;100.00;100339.22;5013999;28;20037;-78
2022/09/29 03:36:58;;;;;;;5.25;1.63;;;;;;;7.61;100.00;100328.84;5011883;28;20038;-77
2022/09/29 03:39:24;;;;;;;2.90;1.08;;;;;;;7.71;100.00;100320.66;5030853;28;20030;-78
2022/09/29 03:41:50;;;;;;;4.65;1.25;;;;;;;7.89;100.00;100337.38;5014014;28;20077;-78
2022/09/29 03:44:16;;;;;;;2.88;1.42;;;;;;;7.80;100.00;100316.97;5014551;28;20041;-77
2022/09/29 03:46:42;;;;;;;4.35;1.38;;;;;;;7.90;100.00;100343.56;5027144;28;20034;-78
2022/09/29 03:49:10;;;;;;;3.95;1.40;;;;;;;7.76;100.00;100328.19;5013985;28;20033;-78
2022/09/29 03:51:36;;;;;;;4.28;1.17;;;;;;;7.69;100.00;100330.69;5030249;28;20036;-78
2022/09/29 03:54:02;;;;;;;5.00;1.40;;;;;;;7.60;100.00;100343.25;4997068;28;20036;-78
2022/09/29 03:56:28;;;;;;;2.50;1.70;;;;;;;7.45;100.00;100351.09;5013597;28;20029;-76
2022/09/29 03:58:53;;;;;;;5.25;1.95;;;;;;;7.16;100.00;100326.63;5014377;28;20128;-78
2022/09/29 04:01:19;;;;;;;4.75;1.13;;;;;;;7.01;100.00;100345.13;4997482;28;20040;-79
2022/09/29 04:03:45;;;;;;;1.83;1.10;;;;;;;6.89;100.00;100344.63;5029434;28;20029;-79
2022/09/29 04:06:11;;;;;;;2.67;1.13;;;;;;;6.88;100.00;100326.91;4997326;28;20087;-78
2022/09/29 04:08:37;;;;;;;4.95;1.30;;;;;;;7.19;100.00;100353.03;5013768;28;20025;-78
2022/09/29 04:11:03;;;;;;;7.07;1.27;;;;;;;7.30;100.00;100350.06;5026677;28;20029;-79
2022/09/29 04:13:29;;;;;;;4.97;1.77;;;;;;;7.34;100.00;100343.38;5013847;28;20026;-78
2022/09/29 04:15:59;;;;;;;1.65;1.13;;;;;;;7.48;100.00;100360.63;5030468;28;20022;-78
2022/09/29 04:18:25;;;;;;;3.65;1.20;;;;;;;7.46;100.00;100358.13;5030112;28;20025;-78
2022/09/29 04:20:50;;;;;;;4.30;1.33;;;;;;;7.51;100.00;100362.13;5013603;28;20116;-78
2022/09/29 04:23:16;;;;;;;7.90;1.30;;;;;;;7.32;100.00;100333.84;5030798;28;20026;-79
2022/09/29 04:25:44;;;;;;;5.15;1.10;;;;;;;7.35;100.00;100365.63;5029753;28;20043;-78
2022/09/29 04:28:11;;;;;;;2.65;1.00;;;;;;;7.19;100.00;100358.41;4996510;28;20498;-78
2022/09/29 04:30:37;;;;;;;3.80;1.17;;;;;;;6.99;100.00;100360.53;5029974;28;20155;-78
2022/09/29 04:33:02;;;;;;;5.40;1.30;;;;;;;6.82;100.00;100365.78;5030977;28;20064;-78
2022/09/29 04:35:28;;;;;;;2.08;1.02;;;;;;;6.70;100.00;100360.91;5029869;28;20064;-79
2022/09/29 04:37:56;;;;;;;4.32;0.77;;;;;;;6.64;100.00;100350.84;4997070;28;20125;-79
2022/09/29 04:40:22;;;;;;;1.52;0.80;;;;;;;6.72;100.00;100367.78;5024003;28;20523;-78
2022/09/29 04:42:48;;;;;;;4.55;1.05;;;;;;;6.50;100.00;100365.66;5029871;28;20034;-78
2022/09/29 04:45:14;;;;;;;5.93;1.13;;;;;;;6.32;100.00;100366.53;5026679;28;20421;-78
2022/09/29 04:47:40;;;;;;;5.85;1.10;;;;;;;6.24;100.00;100371.00;5013427;28;20065;-78
2022/09/29 04:50:06;;;;;;;5.18;1.23;;;;;;;6.21;100.00;100363.31;5013145;28;20392;-78
2022/09/29 04:52:32;;;;;;;5.38;1.02;;;;;;;6.16;100.00;100375.28;5013272;28;20040;-79
2022/09/29 04:54:57;;;;;;;4.40;1.20;;;;;;;6.05;100.00;100362.22;5030816;28;20029;-78
2022/09/29 04:57:23;;;;;;;3.80;1.00;;;;;;;6.02;100.00;100378.53;5031149;28;20059;-79
2022/09/29 04:59:50;;;;;;;1.60;1.05;;;;;;;5.87;100.00;100375.53;5013472;28;20037;-79
2022/09/29 05:02:19;;;;;;;2.53;0.65;;;;;;;5.80;100.00;100384.34;5026619;28;20026;-78
2022/09/29 05:04:46;;;;;;;5.68;1.05;;;;;;;5.73;100.00;100390.28;5030519;28;20048;-80
2022/09/29 05:07:12;;;;;;;2.75;0.80;;;;;;;5.69;100.00;100386.25;5013222;28;20515;-77
2022/09/29 05:09:38;;;;;;;3.47;1.17;;;;;;;5.71;100.00;100389.59;5029567;28;20049;-77
2022/09/29 05:12:04;;;;;;;4.38;1.00;;;;;;;5.75;100.00;100397.31;5030712;28;20053;-77
2022/09/29 05:14:29;;;;;;;4.82;1.10;;;;;;;5.60;100.00;100381.81;5031765;28;20049;-77
2022/09/29 05:16:55;;;;;;;1.58;0.75;;;;;;;5.78;100.00;100408.50;5034554;28;20078;-77
2022/09/29 05:19:21;;;;;;;0.50;0.50;;;;;;;5.93;100.00;100412.34;5030499;28;20045;-78
2022/09/29 05:21:46;;;;;;;4.78;1.83;;;;;;;6.31;100.00;100415.63;5032932;28;20040;-78
2022/09/29 05:24:12;;;;;;;3.30;1.10;;;;;;;6.53;100.00;100414.25;5021145;28;20097;-77
2022/09/29 05:26:37;;;;;;;4.35;1.00;;;;;;;6.68;100.00;100419.00;5017118;28;20403;-76
2022/09/29 05:29:03;;;;;;;1.20;0.60;;;;;;;6.72;100.00;100417.69;5034435;28;20029;-77
2022/09/29 05:31:29;;;;;;;1.63;0.82;;;;;;;6.90;100.00;100415.78;5016480;28;20033;-77
2022/09/29 05:33:55;;;;;;;1.83;1.10;;;;;;;7.04;100.00;100412.50;5033105;28;20415;-77
2022/09/29 05:36:21;;;;;;;0.93;0.70;;;;;;;7.20;100.00;100409.06;5024971;28;20025;-77
2022/09/29 05:38:47;;;;;;;2.13;1.27;;;;;;;7.19;100.00;100419.91;5000428;28;20390;-76
2022/09/29 05:41:16;;;;;;;4.70;1.20;;;;;;;7.05;100.00;100413.34;5016696;28;20029;-76
2022/09/29 05:43:42;;;;;;;5.13;1.02;;;;;;;6.92;100.00;100403.09;5011127;28;20099;-77
2022/09/29 05:46:09;;;;;;;3.05;1.05;;;;;;;7.05;100.00;100414.16;5016536;28;20041;-76
2022/09/29 05:48:35;;;;;;;3.25;1.00;;;;;;;6.98;100.00;100399.75;5000393;28;20061;-77
2022/09/29 05:51:08;;;;;;;5.63;1.17;;;;;;;7.11;100.00;100417.19;5032895;28;20061;-78
2022/09/29 05:53:33;;;;;;;9.65;1.23;;;;;;;7.26;100.00;100420.94;5016564;28;20430;-77
2022/09/29 05:56:03;;;;;;;5.68;1.30;;;;;;;7.31;100.00;100417.78;5033947;28;20531;-77
2022/09/29 05:58:30;;;;;;;2.15;0.90;;;;;;;7.22;100.00;100416.88;5025033;28;20036;-76
2022/09/29 06:00:55;;;;;;;3.47;1.23;;;;;;;7.25;100.00;100419.22;5033702;28;20543;-76
2022/09/29 06:03:21;;;;;;;5.30;1.42;;;;;;;7.40;100.00;100431.00;5032185;28;20112;-78
2022/09/29 06:05:46;;;;;;;4.03;0.77;;;;;;;7.47;100.00;100428.50;5033385;28;20029;-76
2022/09/29 06:08:12;;;;;;;5.15;1.27;;;;;;;7.55;100.00;100441.06;5033955;28;20426;-76
2022/09/29 06:10:37;;;;;;;6.93;1.20;;;;;;;7.52;100.00;100411.97;5029146;28;20030;-76
2022/09/29 06:13:03;;;;;;;6.05;1.10;;;;;;;7.73;100.00;100417.69;5032283;28;20541;-77
2022/09/29 06:15:29;;;;;;;5.60;1.45;;;;;;;7.94;100.00;100441.28;5032548;28;20033;-78
2022/09/29 06:17:58;;;;;;;2.75;1.27;;;;;;;8.13;100.00;100437.44;5015970;28;20029;-76
2022/09/29 06:20:24;;;;;;;2.95;1.02;;;;;;;8.08;100.00;100427.22;5003138;28;20029;-76
2022/09/29 06:22:53;;;;;;;4.70;0.90;;;;;;;8.13;100.00;100446.31;5033110;28;20029;-76
2022/09/29 06:25:19;;;;;;;9.73;2.70;;;;;;;8.12;100.00;100439.28;4998290;28;20034;-76
2022/09/29 06:27:44;;;;;;;2.72;1.05;;;;;;;8.06;100.00;100431.09;5014978;28;20037;-76
2022/09/29 06:30:12;;;;;;;1.48;0.80;;;;;;;7.97;100.00;100434.78;5032594;28;20044;-77
2022/09/29 06:32:38;;;;;;;2.95;0.60;;;;;;;7.93;100.00;100448.47;5015197;28;20034;-77
2022/09/29 06:37:49;;;;;;;2.40;1.15;;;;;;;7.75;100.00;100445.09;5032265;28;20068;-76
2022/09/29 06:40:15;;;;;;;1.95;1.00;;;;;;;7.67;100.00;100445.09;5031448;28;20057;-76
2022/09/29 06:42:40;;;;;;;4.03;0.93;;;;;;;7.59;100.00;100453.09;5021331;28;20474;-77
2022/09/29 06:45:07;;;;;;;4.25;1.05;;;;;;;7.53;100.00;100459.13;5014306;28;20086;-77
2022/09/29 06:47:32;;;;;;;4.60;0.90;;;;;;;7.38;100.00;100464.25;5015335;28;20038;-76
2022/09/29 06:50:01;;;;;;;1.73;0.82;;;;;;;7.21;100.00;100460.69;5032743;28;20029;-77
2022/09/29 06:52:26;;;;;;;3.05;0.90;;;;;;;7.20;100.00;100472.41;5025523;28;20476;-77
2022/09/29 06:54:52;;;;;;;1.40;0.98;;;;;;;7.20;100.00;100467.88;5015562;28;20041;-77
2022/09/29 06:57:18;;;;;;;3.95;0.80;;;;;;;7.17;100.00;100457.50;5031504;28;20056;-77
2022/09/29 06:59:44;;;;;;;2.47;0.80;;;;;;;7.15;100.00;100459.50;5023223;28;20502;-76
2022/09/29 07:02:10;;;;;;;3.95;0.80;;;;;;;7.17;100.00;100478.91;5030527;28;20119;-77
2022/09/29 07:04:36;;;;;;;6.95;1.38;;;;;;;7.20;100.00;100481.25;5014798;28;20045;-77
2022/09/29 07:07:01;;;;;;;2.38;0.90;;;;;;;7.18;100.00;100490.44;5014731;28;20033;-77
2022/09/29 07:09:27;;;;;;;4.10;1.20;;;;;;;7.14;100.00;100470.34;5018615;28;20029;-77
2022/09/29 07:11:53;;;;;;;5.75;1.60;;;;;;;7.13;100.00;100479.38;5026621;28;20033;-77
2022/09/29 07:14:21;;;;;;;8.07;1.00;;;;;;;7.01;100.00;100489.50;5024815;28;20029;-76
2022/09/29 07:16:47;;;;;;;4.45;1.13;;;;;;;6.82;100.00;100477.19;5030908;28;20033;-77
2022/09/29 07:19:13;;;;;;;3.30;1.00;;;;;;;6.89;100.00;100491.63;4994996;28;20404;-77
2022/09/29 07:21:39;;;;;;;2.35;1.10;;;;;;;6.86;100.00;100491.09;5031082;28;20364;-77
2022/09/29 07:24:04;;;;;;;2.22;1.10;;;;;;;6.81;100.00;100492.41;5031662;28;20105;-78
2022/09/29 07:26:30;;;;;;;5.18;1.20;;;;;;;6.76;100.00;100502.72;5030773;28;20104;-77
2022/09/29 07:28:56;;;;;;;3.25;1.40;;;;;;;6.63;100.00;100504.97;5030836;28;20395;-77
2022/09/29 07:31:22;;;;;;;3.47;1.20;;;;;;;6.55;100.00;100497.75;4998388;28;20041;-77
2022/09/29 07:33:49;;;;;;;1.90;1.20;;;;;;;6.57;100.00;100502.94;5014154;28;20029;-77
2022/09/29 07:36:17;;;;;;;2.72;1.50;;;;;;;6.62;100.00;100508.66;5013757;28;20029;-77
2022/09/29 07:38:45;;;;;;;2.70;1.52;;;;;;;6.61;100.00;100501.63;5030323;28;20033;-77
2022/09/29 07:41:11;;;;;;;4.63;1.63;;;;;;;6.53;100.00;100486.34;5014001;28;20033;-77
2022/09/29 07:43:37;;;;;;;4.03;1.60;;;;;;;6.93;100.00;100518.84;5002457;28;20419;-78
2022/09/29 07:46:04;;;;;;;2.25;1.25;;;;;;;7.26;100.00;100504.66;5027692;28;20550;-78
2022/09/29 07:48:30;;;;;;;2.95;1.33;;;;;;;7.19;100.00;100510.81;5030865;28;20026;-77
2022/09/29 07:51:07;;;;;;;3.38;1.13;;;;;;;7.21;100.00;100522.19;5046971;28;20033;-77
2022/09/29 07:53:33;;;;;;;2.65;1.27;;;;;;;8.72;100.00;100514.97;5010363;28;20034;-78
2022/09/29 07:56:06;;;;;;;2.92;1.30;;;;;;;10.69;100.00;100512.06;5030987;28;20025;-78
2022/09/29 07:58:32;;;;;;;3.15;1.42;;;;;;;12.49;100.00;100523.22;5027409;28;20458;-79
2022/09/29 08:00:59;;;;;;;3.95;1.30;;;;;;;13.26;93.04;100511.59;4997727;28;20112;-79
2022/09/29 08:03:25;;;;;;;3.22;1.15;;;;;;;13.95;89.43;100518.72;5030686;28;20033;-79
2022/09/29 08:05:55;;;;;;;3.42;1.30;;;;;;;14.65;87.10;100515.72;5013869;28;20091;-79
2022/09/29 08:08:20;;;;;;;7.28;1.40;;;;;;;15.27;84.38;100518.94;5003452;28;20037;-77
2022/09/29 08:10:46;;;;;;;3.35;1.20;;;;;;;15.74;82.67;100525.88;5027773;28;20036;-80
2022/09/29 08:13:12;;;;;;;2.72;1.05;;;;;;;16.01;81.23;100523.91;5014083;28;20033;-79
2022/09/29 08:15:37;;;;;;;2.28;1.00;;;;;;;16.23;79.78;100531.69;5015577;28;20472;-78
2022/09/29 08:18:03;;;;;;;3.25;1.02;;;;;;;16.58;79.08;100532.06;5013944;28;20041;-78
2022/09/29 08:20:28;;;;;;;1.35;0.90;;;;;;;16.69;78.11;100533.22;5029827;28;20087;-79
2022/09/29 08:22:55;;;;;;;3.08;0.90;;;;;;;16.62;78.31;100549.56;5013423;28;20040;-79
2022/09/29 08:25:22;;;;;;;1.77;0.70;;;;;;;14.94;83.80;100547.75;5030778;28;20057;-78
2022/09/29 08:27:48;;;;;;;3.38;1.10;;;;;;;14.99;87.15;100535.47;5026001;28;20033;-78
2022/09/29 08:30:14;;;;;;;3.85;1.75;;;;;;;16.23;82.57;100545.25;5029810;28;20083;-79
2022/09/29 08:32:40;;;;;;;1.20;0.88;;;;;;;17.32;79.33;100551.25;5013397;28;20037;-78
2022/09/29 08:35:06;;;;;;;2.83;0.88;;;;;;;16.65;79.34;100551.03;5029461;28;20087;-78
2022/09/29 08:37:32;;;;;;;0.98;0.68;;;;;;;15.07;84.27;100544.19;5013457;28;20053;-78
2022/09/29 08:39:57;;;;;;;3.35;0.80;;;;;;;13.87;91.11;100558.63;5013083;28;20033;-79
2022/09/29 08:42:23;;;;;;;1.27;0.90;;;;;;;14.24;94.14;100565.38;5029488;28;20395;-78
2022/09/29 08:45:01;;;;;;;3.25;0.90;;;;;;;16.21;84.51;100559.03;5028589;28;20025;-79
2022/09/29 08:47:30;;;;;;;1.00;0.90;;;;;;;18.08;74.19;100570.91;5026631;28;20034;-78
2022/09/29 08:50:04;;;;;;;1.50;0.80;;;;;;;18.09;73.18;100564.38;5013582;28;20446;-78
2022/09/29 08:52:33;;;;;;;1.08;0.70;;;;;;;16.76;78.55;100574.72;5009808;28;20033;-78
2022/09/29 08:55:17;;;;;;;0.52;0.52;;;;;;;16.12;81.02;100567.66;5001114;28;20041;-78
2022/09/29 08:57:45;;;;;;;2.40;0.80;;;;;;;17.60;77.48;100580.66;5017329;28;20510;-79
2022/09/29 09:00:14;;;;;;;4.45;0.90;;;;;;;19.51;70.34;100563.53;5014138;28;20076;-80
2022/09/29 09:03:04;;;;;;;3.80;1.20;;;;;;;21.60;60.64;100577.38;5000794;28;20033;-79
2022/09/29 09:06:08;;;;;;;3.60;0.93;;;;;;;22.53;55.47;100576.53;5026170;28;20033;-76
2022/09/29 09:08:41;;;;;;;0.45;0.40;;;;;;;19.32;59.36;100580.03;5014906;28;20121;-77
2022/09/29 09:11:20;;;;;;;2.30;0.80;;;;;;;19.78;61.20;100585.69;5008653;28;20087;-78
2022/09/29 09:14:07;;;;;;;1.75;1.02;;;;;;;20.92;54.28;100590.28;5017221;28;20042;-78
2022/09/29 09:17:03;;;;;;;1.05;0.70;;;;;;;21.62;53.71;100588.03;5033687;28;20509;-79
2022/09/29 09:19:37;;;;;;;1.15;1.00;;;;;;;22.12;51.93;100587.00;5032847;28;20411;-77
2022/09/29 09:22:09;;;;;;;2.55;0.90;;;;;;;22.55;51.65;100577.91;5034880;28;20330;-78
2022/09/29 09:24:47;;;;;;;1.15;0.80;;;;;;;22.16;49.03;100560.78;5033595;28;20122;-78
2022/09/29 09:27:21;;;;;;;1.58;0.75;;;;;;;21.56;51.42;100584.41;5029381;28;20040;-79
2022/09/29 09:29:46;;;;;;;;;;;;;;;22.20;49.72;100583.84;5022599;28;20033;-78
2022/09/29 09:32:20;;;;;;;2.08;0.93;;;;;;;22.64;50.50;100582.94;5016825;28;19920;-77
2022/09/29 09:34:56;;;;;;;2.75;1.33;;;;;;;23.11;46.42;100580.31;5030079;28;20037;-78
2022/09/29 09:37:25;;;;;;;1.20;0.75;;;;;;;23.61;44.61;100583.66;5032447;28;20037;-78
2022/09/29 09:39:54;;;;;;;2.38;0.88;;;;;;;24.07;46.53;100598.41;5016725;28;20037;-78
2022/09/29 09:42:24;;;;;;;0.80;0.80;;;;;;;24.62;45.68;100598.03;5031805;28;20407;-79
2022/09/29 09:44:57;;;;;;;1.48;0.93;;;;;;;24.97;44.94;100595.25;5015908;28;20510;-78
2022/09/29 09:47:39;;;;;;;1.40;0.90;;;;;;;23.60;45.18;100590.22;4999785;28;20034;-78
2022/09/29 09:50:14;;;;;;;1.50;0.60;;;;;;;23.75;43.95;100587.56;4999957;28;20045;-78
2022/09/29 09:52:41;;;;;;;2.00;1.02;;;;;;;21.19;49.71;100600.53;5012793;28;20387;-77
2022/09/29 09:55:24;;;;;;;0.40;0.40;;;;;;;21.75;46.03;100565.78;5032808;28;20034;-78
2022/09/29 09:58:04;;;;;;;1.15;0.73;;;;;;;21.96;46.18;100594.22;5016539;28;20026;-78
2022/09/29 10:01:06;;;;;;;1.38;1.10;;;;;;;21.80;46.79;100595.94;5026574;28;20026;-78
2022/09/29 10:03:32;;;;;;;1.90;0.82;;;;;;;23.50;45.92;100582.78;4995840;28;20034;-78
2022/09/29 10:05:58;;;;;;;1.90;0.90;;;;;;;23.04;47.00;100582.47;5002909;28;20045;-79
2022/09/29 10:08:29;;;;;;;1.15;0.80;;;;;;;23.91;42.91;100574.75;4999643;28;20037;-79
2022/09/29 10:10:55;;;;;;;2.35;1.25;;;;;;;23.98;40.84;100585.47;5016018;28;20033;-78
2022/09/29 10:13:24;;;;;;;0.82;0.75;;;;;;;24.76;41.51;100583.44;5015718;28;20070;-78
2022/09/29 10:16:15;;;;;;;1.50;0.82;;;;;;;25.50;38.52;100585.84;4999593;28;20033;-78
2022/09/29 10:18:43;;;;;;;0.82;0.80;;;;;;;25.67;37.61;100573.41;5026115;28;20030;-79
2022/09/29 10:21:25;;;;;;;3.13;0.80;;;;;;;26.08;37.81;100581.50;5029960;28;20083;-78
2022/09/29 10:23:55;;;;;;;1.52;1.02;;;;;;;26.51;37.25;100575.44;5029635;28;20431;-81
2022/09/29 10:26:24;;;;;;;1.75;1.00;;;;;;;26.56;35.30;100578.22;5028767;28;20049;-78
2022/09/29 10:28:50;;;;;;;1.40;0.90;;;;;;;26.49;33.14;100585.97;4999503;28;20029;-79
2022/09/29 10:31:28;;;;;;;2.60;0.80;;;;;;;25.59;36.31;100570.41;5033229;28;20478;-79
2022/09/29 10:34:16;;;;;;;0.70;0.70;;;;;;;25.63;34.91;100571.50;5032177;28;20095;-80
2022/09/29 10:36:54;;;;;;;4.47;0.80;;;;;;;25.68;35.83;100568.72;5034257;28;20041;-78
2022/09/29 10:39:36;;;;;;;1.52;1.10;;;;;;;26.00;34.93;100576.59;5015362;28;20479;-78
2022/09/29 10:42:04;;;;;;;2.13;1.00;;;;;;;25.95;35.00;100587.63;5028877;28;20504;-78
2022/09/29 10:44:32;;;;;;;1.23;1.13;;;;;;;26.30;34.82;100575.63;5031836;28;20034;-79
2022/09/29 10:46:58;;;;;;;1.60;0.80;;;;;;;27.05;32.98;100568.97;5015192;28;20037;-79
2022/09/29 10:49:28;;;;;;;1.73;0.40;;;;;;;24.82;36.09;100567.75;5032670;28;20044;-80
2022/09/29 10:52:02;;;;;;;2.50;0.70;;;;;;;25.37;37.40;100566.06;5026016;28;20044;-78
2022/09/29 10:54:35;;;;;;;0.65;0.50;;;;;;;23.73;39.62;100561.47;5015239;28;20037;-78
2022/09/29 10:57:11;;;;;;;2.83;0.50;;;;;;;22.74;40.86;100558.34;5015441;28;20156;-79
2022/09/29 10:59:48;;;;;;;0.68;0.45;;;;;;;20.20;47.41;100571.78;5028251;28;20277;-78
2022/09/29 11:02:22;;;;;;;0.40;0.40;;;;;;;18.62;51.33;100560.88;5031207;28;20025;-78
2022/09/29 11:04:48;;;;;;;0.77;0.70;;;;;;;17.88;54.46;100544.75;5015113;28;20029;-78
2022/09/29 11:07:14;;;;;;;0.52;0.50;;;;;;;17.74;55.67;100573.16;5017396;28;20372;-78
2022/09/29 11:09:41;;;;;;;2.10;0.80;;;;;;;17.58;56.83;100577.31;5032413;28;20079;-78
2022/09/29 11:12:30;;;;;;;0.50;0.45;;;;;;;17.32;57.76;100575.72;5030479;28;20041;-78
2022/09/29 11:14:57;;;;;;;3.17;0.50;;;;;;;17.52;59.03;100576.34;5028864;28;20034;-78
2022/09/29 11:17:27;;;;;;;0.50;0.50;;;;;;;17.89;56.19;100570.91;5012499;28;20091;-79
2022/09/29 11:19:56;;;;;;;0.40;0.40;;;;;;;18.12;56.48;100564.75;5032377;28;20030;-78
2022/09/29 11:22:25;;;;;;;0.60;0.60;;;;;;;17.99;54.82;100568.50;5030330;28;20026;-77
2022/09/29 11:25:00;;;;;;;1.23;0.50;;;;;;;17.62;56.37;100566.81;5028755;28;20475;-78
2022/09/29 11:27:31;;;;;;;3.08;0.77;;;;;;;18.39;54.13;100557.03;5030177;28;20387;-78
2022/09/29 11:30:14;;;;;;;1.20;0.60;;;;;;;19.45;50.42;100564.47;5031746;28;20037;-78
2022/09/29 11:32:42;;;;;;;;;;;;;;;19.56;49.66;100563.66;5040754;28;20041;-81
2022/09/29 11:35:59;;;;;;;0.50;0.50;;;;;;;19.56;50.17;100574.56;5061545;28;19921;-80
2022/09/29 11:38:40;;;;;;;0.60;0.60;;;;;;;19.68;47.34;100555.47;5048915;28;20392;-78
2022/09/29 11:41:32;;;;;;;0.60;0.60;;;;;;;19.99;48.02;100582.28;4997872;28;20395;-79
2022/09/29 11:44:09;;;;;;;0.60;0.60;;;;;;;20.12;47.86;100575.72;5026989;28;20480;-78